sensor_id;sensor_type;location;lat;lon;timestamp;P1;durP1;ratioP1;P2;durP2;ratioP2
7881;SDS011;3986;41.884;23.466;2022-07-06T00:02:08;19.52;;;14.73;;
7881;SDS011;3986;41.884;23.466;2022-07-06T00:04:35;25.23;;;13.13;;
7881;SDS011;3986;41.884;23.466;2022-07-06T00:07:03;25.98;;;14.73;;
7881;SDS011;3986;41.884;23.466;2022-07-06T00:09:31;28.80;;;14.85;;
7881;SDS011;3986;41.884;23.466;2022-07-06T00:11:57;19.25;;;13.65;;
7881;SDS011;3986;41.884;23.466;2022-07-06T00:14:24;15.80;;;14.20;;
7881;SDS011;3986;41.884;23.466;2022-07-06T00:16:51;13.75;;;12.65;;
7881;SDS011;3986;41.884;23.466;2022-07-06T00:19:18;15.07;;;13.65;;
7881;SDS011;3986;41.884;23.466;2022-07-06T00:21:45;17.70;;;14.75;;
7881;SDS011;3986;41.884;23.466;2022-07-06T00:24:13;30.48;;;14.77;;
7881;SDS011;3986;41.884;23.466;2022-07-06T00:26:41;29.40;;;14.57;;
7881;SDS011;3986;41.884;23.466;2022-07-06T00:29:08;21.77;;;14.35;;
7881;SDS011;3986;41.884;23.466;2022-07-06T00:31:35;21.70;;;13.88;;
7881;SDS011;3986;41.884;23.466;2022-07-06T00:34:01;15.80;;;14.15;;
7881;SDS011;3986;41.884;23.466;2022-07-06T00:36:28;17.25;;;13.27;;
7881;SDS011;3986;41.884;23.466;2022-07-06T00:38:55;14.98;;;12.60;;
7881;SDS011;3986;41.884;23.466;2022-07-06T00:41:23;14.13;;;12.63;;
7881;SDS011;3986;41.884;23.466;2022-07-06T00:43:50;13.85;;;12.55;;
7881;SDS011;3986;41.884;23.466;2022-07-06T00:46:21;15.52;;;12.75;;
7881;SDS011;3986;41.884;23.466;2022-07-06T00:48:51;17.27;;;15.52;;
7881;SDS011;3986;41.884;23.466;2022-07-06T00:51:18;17.92;;;15.70;;
7881;SDS011;3986;41.884;23.466;2022-07-06T00:53:48;15.15;;;13.65;;
7881;SDS011;3986;41.884;23.466;2022-07-06T00:56:15;23.40;;;15.43;;
7881;SDS011;3986;41.884;23.466;2022-07-06T00:58:43;21.58;;;13.13;;
7881;SDS011;3986;41.884;23.466;2022-07-06T01:01:11;20.13;;;13.77;;
7881;SDS011;3986;41.884;23.466;2022-07-06T01:03:37;28.77;;;17.95;;
7881;SDS011;3986;41.884;23.466;2022-07-06T01:06:04;36.28;;;17.20;;
7881;SDS011;3986;41.884;23.466;2022-07-06T01:08:31;21.25;;;15.98;;
7881;SDS011;3986;41.884;23.466;2022-07-06T01:10:58;24.70;;;16.27;;
7881;SDS011;3986;41.884;23.466;2022-07-06T01:13:26;29.88;;;16.55;;
7881;SDS011;3986;41.884;23.466;2022-07-06T01:15:55;20.48;;;16.33;;
7881;SDS011;3986;41.884;23.466;2022-07-06T01:18:21;24.13;;;16.40;;
7881;SDS011;3986;41.884;23.466;2022-07-06T01:20:50;20.95;;;15.75;;
7881;SDS011;3986;41.884;23.466;2022-07-06T01:23:16;28.63;;;18.00;;
7881;SDS011;3986;41.884;23.466;2022-07-06T01:25:43;25.95;;;16.25;;
7881;SDS011;3986;41.884;23.466;2022-07-06T01:28:10;28.05;;;16.00;;
7881;SDS011;3986;41.884;23.466;2022-07-06T01:30:37;26.58;;;15.75;;
7881;SDS011;3986;41.884;23.466;2022-07-06T01:33:03;37.63;;;17.48;;
7881;SDS011;3986;41.884;23.466;2022-07-06T01:35:31;17.70;;;15.93;;
7881;SDS011;3986;41.884;23.466;2022-07-06T01:38:03;18.10;;;16.17;;
7881;SDS011;3986;41.884;23.466;2022-07-06T01:40:29;28.45;;;16.60;;
7881;SDS011;3986;41.884;23.466;2022-07-06T01:42:57;19.83;;;16.35;;
7881;SDS011;3986;41.884;23.466;2022-07-06T01:45:23;23.20;;;17.50;;
7881;SDS011;3986;41.884;23.466;2022-07-06T01:47:50;27.27;;;15.82;;
7881;SDS011;3986;41.884;23.466;2022-07-06T01:50:17;26.13;;;16.25;;
7881;SDS011;3986;41.884;23.466;2022-07-06T01:52:44;28.38;;;15.55;;
7881;SDS011;3986;41.884;23.466;2022-07-06T01:55:12;32.33;;;14.13;;
7881;SDS011;3986;41.884;23.466;2022-07-06T01:57:39;34.65;;;13.77;;
7881;SDS011;3986;41.884;23.466;2022-07-06T02:00:06;32.55;;;13.32;;
7881;SDS011;3986;41.884;23.466;2022-07-06T02:02:34;21.55;;;14.02;;
7881;SDS011;3986;41.884;23.466;2022-07-06T02:05:01;17.75;;;13.52;;
7881;SDS011;3986;41.884;23.466;2022-07-06T02:07:28;22.00;;;13.73;;
7881;SDS011;3986;41.884;23.466;2022-07-06T02:09:54;18.92;;;12.48;;
7881;SDS011;3986;41.884;23.466;2022-07-06T02:12:23;22.55;;;11.65;;
7881;SDS011;3986;41.884;23.466;2022-07-06T02:14:49;32.35;;;13.27;;
7881;SDS011;3986;41.884;23.466;2022-07-06T02:17:16;23.73;;;11.45;;
7881;SDS011;3986;41.884;23.466;2022-07-06T02:19:43;25.67;;;12.00;;
7881;SDS011;3986;41.884;23.466;2022-07-06T02:22:10;26.20;;;11.90;;
7881;SDS011;3986;41.884;23.466;2022-07-06T02:24:36;20.58;;;11.98;;
7881;SDS011;3986;41.884;23.466;2022-07-06T02:27:03;19.58;;;11.90;;
7881;SDS011;3986;41.884;23.466;2022-07-06T02:29:32;16.30;;;12.50;;
7881;SDS011;3986;41.884;23.466;2022-07-06T02:31:58;19.40;;;12.02;;
7881;SDS011;3986;41.884;23.466;2022-07-06T02:34:25;20.38;;;11.98;;
7881;SDS011;3986;41.884;23.466;2022-07-06T02:36:52;24.42;;;11.48;;
7881;SDS011;3986;41.884;23.466;2022-07-06T02:39:19;24.45;;;12.07;;
7881;SDS011;3986;41.884;23.466;2022-07-06T02:41:45;19.58;;;11.80;;
7881;SDS011;3986;41.884;23.466;2022-07-06T02:44:12;25.25;;;11.48;;
7881;SDS011;3986;41.884;23.466;2022-07-06T02:46:40;21.45;;;10.70;;
7881;SDS011;3986;41.884;23.466;2022-07-06T02:49:07;22.27;;;11.50;;
7881;SDS011;3986;41.884;23.466;2022-07-06T02:51:34;17.98;;;11.10;;
7881;SDS011;3986;41.884;23.466;2022-07-06T02:54:01;19.88;;;12.10;;
7881;SDS011;3986;41.884;23.466;2022-07-06T02:56:27;28.45;;;16.55;;
7881;SDS011;3986;41.884;23.466;2022-07-06T02:58:54;31.33;;;15.70;;
7881;SDS011;3986;41.884;23.466;2022-07-06T03:01:21;34.42;;;20.63;;
7881;SDS011;3986;41.884;23.466;2022-07-06T03:03:49;29.05;;;16.77;;
7881;SDS011;3986;41.884;23.466;2022-07-06T03:06:16;27.85;;;15.65;;
7881;SDS011;3986;41.884;23.466;2022-07-06T03:08:43;41.55;;;19.75;;
7881;SDS011;3986;41.884;23.466;2022-07-06T03:11:09;30.63;;;16.17;;
7881;SDS011;3986;41.884;23.466;2022-07-06T03:13:36;24.60;;;15.10;;
7881;SDS011;3986;41.884;23.466;2022-07-06T03:16:03;21.60;;;15.43;;
7881;SDS011;3986;41.884;23.466;2022-07-06T03:18:30;35.65;;;18.23;;
7881;SDS011;3986;41.884;23.466;2022-07-06T03:20:58;32.85;;;18.50;;
7881;SDS011;3986;41.884;23.466;2022-07-06T03:23:25;41.05;;;21.77;;
7881;SDS011;3986;41.884;23.466;2022-07-06T03:25:52;45.63;;;22.95;;
7881;SDS011;3986;41.884;23.466;2022-07-06T03:28:19;38.95;;;21.27;;
7881;SDS011;3986;41.884;23.466;2022-07-06T03:30:46;35.88;;;21.20;;
7881;SDS011;3986;41.884;23.466;2022-07-06T03:33:13;21.35;;;17.85;;
7881;SDS011;3986;41.884;23.466;2022-07-06T03:35:39;27.95;;;18.13;;
7881;SDS011;3986;41.884;23.466;2022-07-06T03:38:08;23.95;;;16.58;;
7881;SDS011;3986;41.884;23.466;2022-07-06T03:40:34;18.95;;;16.08;;
7881;SDS011;3986;41.884;23.466;2022-07-06T03:43:01;29.48;;;15.88;;
7881;SDS011;3986;41.884;23.466;2022-07-06T03:45:28;37.10;;;15.68;;
7881;SDS011;3986;41.884;23.466;2022-07-06T03:47:56;28.48;;;16.55;;
7881;SDS011;3986;41.884;23.466;2022-07-06T03:50:22;40.72;;;19.80;;
7881;SDS011;3986;41.884;23.466;2022-07-06T03:52:49;33.35;;;19.77;;
7881;SDS011;3986;41.884;23.466;2022-07-06T03:55:17;30.50;;;17.70;;
7881;SDS011;3986;41.884;23.466;2022-07-06T03:57:44;26.08;;;17.90;;
7881;SDS011;3986;41.884;23.466;2022-07-06T04:00:11;30.92;;;17.92;;
7881;SDS011;3986;41.884;23.466;2022-07-06T04:02:39;23.95;;;15.57;;
7881;SDS011;3986;41.884;23.466;2022-07-06T04:05:06;27.35;;;16.50;;
7881;SDS011;3986;41.884;23.466;2022-07-06T04:07:33;19.30;;;16.83;;
7881;SDS011;3986;41.884;23.466;2022-07-06T04:10:00;39.47;;;19.15;;
7881;SDS011;3986;41.884;23.466;2022-07-06T04:12:28;25.90;;;17.70;;
7881;SDS011;3986;41.884;23.466;2022-07-06T04:14:55;36.15;;;20.23;;
7881;SDS011;3986;41.884;23.466;2022-07-06T04:17:22;40.47;;;22.25;;
7881;SDS011;3986;41.884;23.466;2022-07-06T04:20:07;35.88;;;21.70;;
7881;SDS011;3986;41.884;23.466;2022-07-06T04:22:36;27.38;;;19.85;;
7881;SDS011;3986;41.884;23.466;2022-07-06T04:25:04;25.15;;;20.00;;
7881;SDS011;3986;41.884;23.466;2022-07-06T04:27:32;33.08;;;19.98;;
7881;SDS011;3986;41.884;23.466;2022-07-06T04:29:59;30.42;;;18.60;;
7881;SDS011;3986;41.884;23.466;2022-07-06T04:32:26;48.20;;;20.00;;
7881;SDS011;3986;41.884;23.466;2022-07-06T04:34:53;36.45;;;20.77;;
7881;SDS011;3986;41.884;23.466;2022-07-06T04:37:20;36.05;;;20.92;;
7881;SDS011;3986;41.884;23.466;2022-07-06T04:39:47;33.30;;;19.38;;
7881;SDS011;3986;41.884;23.466;2022-07-06T04:42:13;45.38;;;22.38;;
7881;SDS011;3986;41.884;23.466;2022-07-06T04:44:42;19.25;;;17.58;;
7881;SDS011;3986;41.884;23.466;2022-07-06T04:47:08;21.77;;;19.40;;
7881;SDS011;3986;41.884;23.466;2022-07-06T04:49:35;29.65;;;26.73;;
7881;SDS011;3986;41.884;23.466;2022-07-06T04:52:02;33.90;;;27.90;;
7881;SDS011;3986;41.884;23.466;2022-07-06T04:54:29;45.20;;;20.67;;
7881;SDS011;3986;41.884;23.466;2022-07-06T04:56:56;38.20;;;20.88;;
7881;SDS011;3986;41.884;23.466;2022-07-06T04:59:23;41.30;;;18.90;;
7881;SDS011;3986;41.884;23.466;2022-07-06T05:01:52;40.45;;;25.98;;
7881;SDS011;3986;41.884;23.466;2022-07-06T05:04:18;26.38;;;22.52;;
7881;SDS011;3986;41.884;23.466;2022-07-06T05:06:45;36.50;;;32.78;;
7881;SDS011;3986;41.884;23.466;2022-07-06T05:09:12;50.95;;;36.15;;
7881;SDS011;3986;41.884;23.466;2022-07-06T05:11:39;120.57;;;31.13;;
7881;SDS011;3986;41.884;23.466;2022-07-06T05:14:06;37.33;;;19.65;;
7881;SDS011;3986;41.884;23.466;2022-07-06T05:16:33;33.28;;;20.40;;
7881;SDS011;3986;41.884;23.466;2022-07-06T05:19:01;28.75;;;18.95;;
7881;SDS011;3986;41.884;23.466;2022-07-06T05:21:28;364.20;;;36.78;;
7881;SDS011;3986;41.884;23.466;2022-07-06T05:23:55;79.65;;;21.35;;
7881;SDS011;3986;41.884;23.466;2022-07-06T05:26:22;184.93;;;31.38;;
7881;SDS011;3986;41.884;23.466;2022-07-06T05:28:48;193.55;;;32.13;;
7881;SDS011;3986;41.884;23.466;2022-07-06T05:31:15;121.32;;;28.98;;
7881;SDS011;3986;41.884;23.466;2022-07-06T05:33:42;66.45;;;34.00;;
7881;SDS011;3986;41.884;23.466;2022-07-06T05:36:10;111.32;;;25.30;;
7881;SDS011;3986;41.884;23.466;2022-07-06T05:38:37;62.08;;;22.15;;
7881;SDS011;3986;41.884;23.466;2022-07-06T05:41:04;101.45;;;25.90;;
7881;SDS011;3986;41.884;23.466;2022-07-06T05:43:31;167.50;;;25.05;;
7881;SDS011;3986;41.884;23.466;2022-07-06T05:45:57;148.60;;;25.70;;
7881;SDS011;3986;41.884;23.466;2022-07-06T05:48:24;40.88;;;16.63;;
7881;SDS011;3986;41.884;23.466;2022-07-06T05:51:08;32.13;;;17.35;;
7881;SDS011;3986;41.884;23.466;2022-07-06T05:53:36;43.55;;;16.98;;
7881;SDS011;3986;41.884;23.466;2022-07-06T05:56:04;53.35;;;15.52;;
7881;SDS011;3986;41.884;23.466;2022-07-06T05:58:31;55.90;;;17.90;;
7881;SDS011;3986;41.884;23.466;2022-07-06T06:00:58;67.38;;;18.40;;
7881;SDS011;3986;41.884;23.466;2022-07-06T06:03:24;48.03;;;20.05;;
7881;SDS011;3986;41.884;23.466;2022-07-06T06:05:51;34.22;;;16.58;;
7881;SDS011;3986;41.884;23.466;2022-07-06T06:08:18;63.90;;;17.95;;
7881;SDS011;3986;41.884;23.466;2022-07-06T06:10:46;110.45;;;19.63;;
7881;SDS011;3986;41.884;23.466;2022-07-06T06:13:13;53.92;;;16.70;;
7881;SDS011;3986;41.884;23.466;2022-07-06T06:15:40;31.13;;;17.95;;
7881;SDS011;3986;41.884;23.466;2022-07-06T06:18:07;26.10;;;14.70;;
7881;SDS011;3986;41.884;23.466;2022-07-06T06:20:33;35.03;;;13.00;;
7881;SDS011;3986;41.884;23.466;2022-07-06T06:23:00;61.97;;;17.10;;
7881;SDS011;3986;41.884;23.466;2022-07-06T06:25:30;59.58;;;16.67;;
7881;SDS011;3986;41.884;23.466;2022-07-06T06:27:59;55.58;;;17.58;;
7881;SDS011;3986;41.884;23.466;2022-07-06T06:30:26;50.05;;;15.65;;
7881;SDS011;3986;41.884;23.466;2022-07-06T06:33:04;52.42;;;15.05;;
7881;SDS011;3986;41.884;23.466;2022-07-06T06:35:32;41.97;;;14.70;;
7881;SDS011;3986;41.884;23.466;2022-07-06T06:37:58;36.08;;;14.77;;
7881;SDS011;3986;41.884;23.466;2022-07-06T06:40:25;82.72;;;16.38;;
7881;SDS011;3986;41.884;23.466;2022-07-06T06:42:52;55.17;;;16.90;;
7881;SDS011;3986;41.884;23.466;2022-07-06T06:45:20;37.42;;;14.77;;
7881;SDS011;3986;41.884;23.466;2022-07-06T06:47:47;22.75;;;14.30;;
7881;SDS011;3986;41.884;23.466;2022-07-06T06:50:14;53.72;;;14.88;;
7881;SDS011;3986;41.884;23.466;2022-07-06T06:52:41;30.55;;;13.55;;
7881;SDS011;3986;41.884;23.466;2022-07-06T06:55:08;25.42;;;13.88;;
7881;SDS011;3986;41.884;23.466;2022-07-06T06:57:35;91.32;;;18.67;;
7881;SDS011;3986;41.884;23.466;2022-07-06T07:00:02;35.13;;;13.75;;
7881;SDS011;3986;41.884;23.466;2022-07-06T07:02:31;146.82;;;20.00;;
7881;SDS011;3986;41.884;23.466;2022-07-06T07:04:58;45.60;;;14.13;;
7881;SDS011;3986;41.884;23.466;2022-07-06T07:07:24;65.90;;;15.63;;
7881;SDS011;3986;41.884;23.466;2022-07-06T07:09:51;53.78;;;14.63;;
7881;SDS011;3986;41.884;23.466;2022-07-06T07:12:18;67.63;;;15.05;;
7881;SDS011;3986;41.884;23.466;2022-07-06T07:14:45;55.33;;;12.93;;
7881;SDS011;3986;41.884;23.466;2022-07-06T07:17:12;44.95;;;12.43;;
7881;SDS011;3986;41.884;23.466;2022-07-06T07:19:40;42.53;;;12.98;;
7881;SDS011;3986;41.884;23.466;2022-07-06T07:22:07;62.70;;;14.40;;
7881;SDS011;3986;41.884;23.466;2022-07-06T07:24:34;48.85;;;13.40;;
7881;SDS011;3986;41.884;23.466;2022-07-06T07:27:01;120.05;;;17.00;;
7881;SDS011;3986;41.884;23.466;2022-07-06T07:29:28;75.68;;;14.75;;
7881;SDS011;3986;41.884;23.466;2022-07-06T07:31:55;36.58;;;12.93;;
7881;SDS011;3986;41.884;23.466;2022-07-06T07:34:21;40.90;;;14.88;;
7881;SDS011;3986;41.884;23.466;2022-07-06T07:36:50;66.30;;;14.38;;
7881;SDS011;3986;41.884;23.466;2022-07-06T07:39:17;39.25;;;13.93;;
7881;SDS011;3986;41.884;23.466;2022-07-06T07:41:44;158.55;;;24.45;;
7881;SDS011;3986;41.884;23.466;2022-07-06T07:44:10;79.13;;;20.83;;
7881;SDS011;3986;41.884;23.466;2022-07-06T07:46:37;90.50;;;25.27;;
7881;SDS011;3986;41.884;23.466;2022-07-06T07:49:04;92.57;;;24.92;;
7881;SDS011;3986;41.884;23.466;2022-07-06T07:51:31;87.55;;;14.90;;
7881;SDS011;3986;41.884;23.466;2022-07-06T07:53:59;155.55;;;18.95;;
7881;SDS011;3986;41.884;23.466;2022-07-06T07:56:26;81.07;;;19.50;;
7881;SDS011;3986;41.884;23.466;2022-07-06T07:58:53;72.47;;;18.13;;
7881;SDS011;3986;41.884;23.466;2022-07-06T08:01:19;53.58;;;13.60;;
7881;SDS011;3986;41.884;23.466;2022-07-06T08:03:46;73.45;;;15.27;;
7881;SDS011;3986;41.884;23.466;2022-07-06T08:06:13;97.03;;;16.02;;
7881;SDS011;3986;41.884;23.466;2022-07-06T08:08:40;78.38;;;14.20;;
7881;SDS011;3986;41.884;23.466;2022-07-06T08:11:08;84.32;;;15.32;;
7881;SDS011;3986;41.884;23.466;2022-07-06T08:13:35;66.05;;;16.80;;
7881;SDS011;3986;41.884;23.466;2022-07-06T08:16:02;123.50;;;21.00;;
7881;SDS011;3986;41.884;23.466;2022-07-06T08:18:29;42.17;;;17.20;;
7881;SDS011;3986;41.884;23.466;2022-07-06T08:20:56;65.55;;;17.50;;
7881;SDS011;3986;41.884;23.466;2022-07-06T08:23:23;40.33;;;14.95;;
7881;SDS011;3986;41.884;23.466;2022-07-06T08:25:49;52.55;;;17.58;;
7881;SDS011;3986;41.884;23.466;2022-07-06T08:28:18;36.33;;;16.23;;
7881;SDS011;3986;41.884;23.466;2022-07-06T08:30:44;41.00;;;17.05;;
7881;SDS011;3986;41.884;23.466;2022-07-06T08:33:12;55.70;;;20.13;;
7881;SDS011;3986;41.884;23.466;2022-07-06T08:35:39;70.70;;;19.13;;
7881;SDS011;3986;41.884;23.466;2022-07-06T08:38:06;64.32;;;18.58;;
7881;SDS011;3986;41.884;23.466;2022-07-06T08:40:34;68.78;;;18.58;;
7881;SDS011;3986;41.884;23.466;2022-07-06T08:43:01;45.25;;;17.08;;
7881;SDS011;3986;41.884;23.466;2022-07-06T08:45:30;39.13;;;17.10;;
7881;SDS011;3986;41.884;23.466;2022-07-06T08:48:02;46.17;;;18.45;;
7881;SDS011;3986;41.884;23.466;2022-07-06T08:50:30;41.80;;;16.27;;
7881;SDS011;3986;41.884;23.466;2022-07-06T08:52:58;111.68;;;20.75;;
7881;SDS011;3986;41.884;23.466;2022-07-06T08:55:25;106.82;;;20.63;;
7881;SDS011;3986;41.884;23.466;2022-07-06T08:57:53;79.85;;;18.83;;
7881;SDS011;3986;41.884;23.466;2022-07-06T09:00:21;23.85;;;16.13;;
7881;SDS011;3986;41.884;23.466;2022-07-06T09:02:49;51.00;;;15.85;;
7881;SDS011;3986;41.884;23.466;2022-07-06T09:05:19;62.38;;;18.55;;
7881;SDS011;3986;41.884;23.466;2022-07-06T09:07:49;45.60;;;17.80;;
7881;SDS011;3986;41.884;23.466;2022-07-06T09:10:17;92.45;;;19.48;;
7881;SDS011;3986;41.884;23.466;2022-07-06T09:12:44;43.92;;;17.73;;
7881;SDS011;3986;41.884;23.466;2022-07-06T09:15:11;83.72;;;19.83;;
7881;SDS011;3986;41.884;23.466;2022-07-06T09:17:38;58.60;;;18.60;;
7881;SDS011;3986;41.884;23.466;2022-07-06T09:20:08;79.53;;;20.70;;
7881;SDS011;3986;41.884;23.466;2022-07-06T09:22:35;44.28;;;15.32;;
7881;SDS011;3986;41.884;23.466;2022-07-06T09:25:04;49.92;;;14.30;;
7881;SDS011;3986;41.884;23.466;2022-07-06T09:27:36;82.65;;;17.25;;
7881;SDS011;3986;41.884;23.466;2022-07-06T09:30:04;64.43;;;14.07;;
7881;SDS011;3986;41.884;23.466;2022-07-06T09:32:37;259.88;;;24.90;;
7881;SDS011;3986;41.884;23.466;2022-07-06T09:35:05;117.32;;;16.38;;
7881;SDS011;3986;41.884;23.466;2022-07-06T09:37:34;196.60;;;21.65;;
7881;SDS011;3986;41.884;23.466;2022-07-06T09:40:02;85.32;;;15.48;;
7881;SDS011;3986;41.884;23.466;2022-07-06T09:42:42;63.00;;;15.43;;
7881;SDS011;3986;41.884;23.466;2022-07-06T09:45:09;62.78;;;13.77;;
7881;SDS011;3986;41.884;23.466;2022-07-06T09:47:36;102.72;;;15.50;;
7881;SDS011;3986;41.884;23.466;2022-07-06T09:50:04;64.25;;;13.02;;
7881;SDS011;3986;41.884;23.466;2022-07-06T09:52:34;48.05;;;12.50;;
7881;SDS011;3986;41.884;23.466;2022-07-06T09:55:05;83.68;;;14.10;;
7881;SDS011;3986;41.884;23.466;2022-07-06T09:57:51;64.07;;;12.30;;
7881;SDS011;3986;41.884;23.466;2022-07-06T10:00:18;105.03;;;14.52;;
7881;SDS011;3986;41.884;23.466;2022-07-06T10:02:45;56.10;;;12.15;;
7881;SDS011;3986;41.884;23.466;2022-07-06T10:05:14;39.85;;;11.38;;
7881;SDS011;3986;41.884;23.466;2022-07-06T10:07:43;44.00;;;11.57;;
7881;SDS011;3986;41.884;23.466;2022-07-06T10:10:12;72.38;;;12.10;;
7881;SDS011;3986;41.884;23.466;2022-07-06T10:12:39;76.47;;;13.52;;
7881;SDS011;3986;41.884;23.466;2022-07-06T10:15:08;91.32;;;14.60;;
7881;SDS011;3986;41.884;23.466;2022-07-06T10:17:36;44.67;;;11.52;;
7881;SDS011;3986;41.884;23.466;2022-07-06T10:20:04;59.22;;;12.43;;
7881;SDS011;3986;41.884;23.466;2022-07-06T10:22:32;150.50;;;18.35;;
7881;SDS011;3986;41.884;23.466;2022-07-06T10:25:03;68.78;;;12.13;;
7881;SDS011;3986;41.884;23.466;2022-07-06T10:27:31;71.93;;;12.40;;
7881;SDS011;3986;41.884;23.466;2022-07-06T10:29:59;24.00;;;10.77;;
7881;SDS011;3986;41.884;23.466;2022-07-06T10:32:26;57.47;;;12.05;;
7881;SDS011;3986;41.884;23.466;2022-07-06T10:34:54;47.67;;;11.88;;
7881;SDS011;3986;41.884;23.466;2022-07-06T10:37:21;63.47;;;13.77;;
7881;SDS011;3986;41.884;23.466;2022-07-06T10:39:50;188.90;;;19.25;;
7881;SDS011;3986;41.884;23.466;2022-07-06T10:42:43;53.20;;;12.18;;
7881;SDS011;3986;41.884;23.466;2022-07-06T10:45:15;71.38;;;12.65;;
7881;SDS011;3986;41.884;23.466;2022-07-06T10:47:47;25.50;;;11.02;;
7881;SDS011;3986;41.884;23.466;2022-07-06T10:50:16;42.90;;;12.25;;
7881;SDS011;3986;41.884;23.466;2022-07-06T10:52:48;50.17;;;12.75;;
7881;SDS011;3986;41.884;23.466;2022-07-06T10:55:31;100.10;;;15.30;;
7881;SDS011;3986;41.884;23.466;2022-07-06T10:58:00;66.75;;;14.05;;
7881;SDS011;3986;41.884;23.466;2022-07-06T11:00:42;61.28;;;13.02;;
7881;SDS011;3986;41.884;23.466;2022-07-06T11:03:30;62.97;;;13.43;;
7881;SDS011;3986;41.884;23.466;2022-07-06T11:05:58;60.80;;;14.32;;
7881;SDS011;3986;41.884;23.466;2022-07-06T11:08:41;65.35;;;14.85;;
7881;SDS011;3986;41.884;23.466;2022-07-06T11:11:11;51.63;;;14.20;;
7881;SDS011;3986;41.884;23.466;2022-07-06T11:13:46;54.78;;;15.60;;
7881;SDS011;3986;41.884;23.466;2022-07-06T11:16:14;52.33;;;14.25;;
7881;SDS011;3986;41.884;23.466;2022-07-06T11:18:42;133.98;;;19.60;;
7881;SDS011;3986;41.884;23.466;2022-07-06T11:21:14;83.32;;;17.48;;
7881;SDS011;3986;41.884;23.466;2022-07-06T11:23:42;136.73;;;19.55;;
7881;SDS011;3986;41.884;23.466;2022-07-06T11:26:09;50.40;;;15.95;;
7881;SDS011;3986;41.884;23.466;2022-07-06T11:28:37;101.88;;;19.58;;
7881;SDS011;3986;41.884;23.466;2022-07-06T11:31:05;56.17;;;17.73;;
7881;SDS011;3986;41.884;23.466;2022-07-06T11:33:32;64.00;;;17.88;;
7881;SDS011;3986;41.884;23.466;2022-07-06T11:36:12;97.25;;;20.23;;
7881;SDS011;3986;41.884;23.466;2022-07-06T11:38:39;68.68;;;16.02;;
7881;SDS011;3986;41.884;23.466;2022-07-06T11:41:06;37.47;;;12.52;;
7881;SDS011;3986;41.884;23.466;2022-07-06T11:43:33;50.63;;;12.02;;
7881;SDS011;3986;41.884;23.466;2022-07-06T11:46:00;53.40;;;13.60;;
7881;SDS011;3986;41.884;23.466;2022-07-06T11:48:28;31.48;;;12.98;;
7881;SDS011;3986;41.884;23.466;2022-07-06T11:50:58;84.03;;;17.13;;
7881;SDS011;3986;41.884;23.466;2022-07-06T11:53:26;51.00;;;13.85;;
7881;SDS011;3986;41.884;23.466;2022-07-06T11:55:52;60.08;;;12.32;;
7881;SDS011;3986;41.884;23.466;2022-07-06T11:58:20;67.90;;;12.82;;
7881;SDS011;3986;41.884;23.466;2022-07-06T12:01:05;71.20;;;19.05;;
7881;SDS011;3986;41.884;23.466;2022-07-06T12:03:34;92.40;;;16.63;;
7881;SDS011;3986;41.884;23.466;2022-07-06T12:06:01;51.55;;;13.80;;
7881;SDS011;3986;41.884;23.466;2022-07-06T12:08:28;59.20;;;16.15;;
7881;SDS011;3986;41.884;23.466;2022-07-06T12:10:56;43.38;;;17.13;;
7881;SDS011;3986;41.884;23.466;2022-07-06T12:13:23;40.20;;;14.38;;
7881;SDS011;3986;41.884;23.466;2022-07-06T12:15:50;40.75;;;17.13;;
7881;SDS011;3986;41.884;23.466;2022-07-06T12:18:17;57.80;;;17.80;;
7881;SDS011;3986;41.884;23.466;2022-07-06T12:20:45;44.30;;;16.63;;
7881;SDS011;3986;41.884;23.466;2022-07-06T12:23:12;108.80;;;21.05;;
7881;SDS011;3986;41.884;23.466;2022-07-06T12:25:39;87.82;;;20.42;;
7881;SDS011;3986;41.884;23.466;2022-07-06T12:28:05;57.80;;;19.58;;
7881;SDS011;3986;41.884;23.466;2022-07-06T12:30:33;82.40;;;21.30;;
7881;SDS011;3986;41.884;23.466;2022-07-06T12:33:12;144.90;;;23.92;;
7881;SDS011;3986;41.884;23.466;2022-07-06T12:35:40;68.68;;;19.25;;
7881;SDS011;3986;41.884;23.466;2022-07-06T12:38:08;62.17;;;20.42;;
7881;SDS011;3986;41.884;23.466;2022-07-06T12:40:36;76.65;;;19.48;;
7881;SDS011;3986;41.884;23.466;2022-07-06T12:43:03;41.70;;;18.33;;
7881;SDS011;3986;41.884;23.466;2022-07-06T12:45:30;154.40;;;27.20;;
7881;SDS011;3986;41.884;23.466;2022-07-06T12:47:58;49.85;;;18.42;;
7881;SDS011;3986;41.884;23.466;2022-07-06T12:50:32;62.83;;;22.20;;
7881;SDS011;3986;41.884;23.466;2022-07-06T12:52:59;29.80;;;17.95;;
7881;SDS011;3986;41.884;23.466;2022-07-06T12:55:29;34.92;;;18.45;;
7881;SDS011;3986;41.884;23.466;2022-07-06T12:57:57;115.40;;;21.50;;
7881;SDS011;3986;41.884;23.466;2022-07-06T13:00:24;22.88;;;17.08;;
7881;SDS011;3986;41.884;23.466;2022-07-06T13:02:52;49.42;;;19.45;;
7881;SDS011;3986;41.884;23.466;2022-07-06T13:05:24;78.22;;;20.25;;
7881;SDS011;3986;41.884;23.466;2022-07-06T13:07:53;28.88;;;16.85;;
7881;SDS011;3986;41.884;23.466;2022-07-06T13:10:22;75.97;;;20.20;;
7881;SDS011;3986;41.884;23.466;2022-07-06T13:12:51;37.30;;;18.58;;
7881;SDS011;3986;41.884;23.466;2022-07-06T13:15:18;42.30;;;18.40;;
7881;SDS011;3986;41.884;23.466;2022-07-06T13:17:44;68.63;;;21.80;;
7881;SDS011;3986;41.884;23.466;2022-07-06T13:20:12;46.65;;;21.98;;
7881;SDS011;3986;41.884;23.466;2022-07-06T13:22:41;41.65;;;18.60;;
7881;SDS011;3986;41.884;23.466;2022-07-06T13:25:08;50.25;;;18.63;;
7881;SDS011;3986;41.884;23.466;2022-07-06T13:27:35;69.47;;;19.55;;
7881;SDS011;3986;41.884;23.466;2022-07-06T13:30:04;56.38;;;18.00;;
7881;SDS011;3986;41.884;23.466;2022-07-06T13:32:31;81.00;;;19.83;;
7881;SDS011;3986;41.884;23.466;2022-07-06T13:34:58;26.00;;;16.83;;
7881;SDS011;3986;41.884;23.466;2022-07-06T13:37:25;34.88;;;16.77;;
7881;SDS011;3986;41.884;23.466;2022-07-06T13:39:52;21.48;;;14.38;;
7881;SDS011;3986;41.884;23.466;2022-07-06T13:42:19;101.65;;;18.48;;
7881;SDS011;3986;41.884;23.466;2022-07-06T13:44:46;56.22;;;16.30;;
7881;SDS011;3986;41.884;23.466;2022-07-06T13:47:14;68.53;;;18.38;;
7881;SDS011;3986;41.884;23.466;2022-07-06T13:49:41;61.03;;;17.10;;
7881;SDS011;3986;41.884;23.466;2022-07-06T13:52:09;73.90;;;17.67;;
7881;SDS011;3986;41.884;23.466;2022-07-06T13:54:35;62.55;;;16.77;;
7881;SDS011;3986;41.884;23.466;2022-07-06T13:57:03;67.18;;;17.35;;
7881;SDS011;3986;41.884;23.466;2022-07-06T13:59:30;33.40;;;16.00;;
7881;SDS011;3986;41.884;23.466;2022-07-06T14:01:58;36.85;;;14.40;;
7881;SDS011;3986;41.884;23.466;2022-07-06T14:04:26;54.47;;;16.77;;
7881;SDS011;3986;41.884;23.466;2022-07-06T14:06:53;59.55;;;16.55;;
7881;SDS011;3986;41.884;23.466;2022-07-06T14:09:20;45.28;;;15.38;;
7881;SDS011;3986;41.884;23.466;2022-07-06T14:11:46;63.00;;;16.10;;
7881;SDS011;3986;41.884;23.466;2022-07-06T14:14:14;51.80;;;14.50;;
7881;SDS011;3986;41.884;23.466;2022-07-06T14:16:41;133.35;;;20.02;;
7881;SDS011;3986;41.884;23.466;2022-07-06T14:19:08;63.40;;;15.15;;
7881;SDS011;3986;41.884;23.466;2022-07-06T14:21:36;58.00;;;14.88;;
7881;SDS011;3986;41.884;23.466;2022-07-06T14:24:03;42.10;;;13.30;;
7881;SDS011;3986;41.884;23.466;2022-07-06T14:26:30;56.17;;;15.88;;
7881;SDS011;3986;41.884;23.466;2022-07-06T14:28:58;46.25;;;14.75;;
7881;SDS011;3986;41.884;23.466;2022-07-06T14:31:25;29.85;;;13.77;;
7881;SDS011;3986;41.884;23.466;2022-07-06T14:33:51;38.33;;;13.10;;
7881;SDS011;3986;41.884;23.466;2022-07-06T14:36:18;83.38;;;14.60;;
7881;SDS011;3986;41.884;23.466;2022-07-06T14:38:46;139.65;;;19.25;;